Terminal Aerodrome Forecast
Issued by NWS

Home | Current Version | Previous Version | Graphics & Text | Print | Product List | Glossary On
Versions: 1 2 3 4 5 6 7 8 9 10 11 12 13 14 15 16 17 18 19 20
000
FTUS43 KABR 241700
TAFATY
TAF
KATY 241740Z 2418/2518 34015KT P6SM BKN035
      TEMPO 2418/2419 BKN030
     FM250200 05007KT P6SM BKN040
     FM250900 06011KT 3SM -SN OVC019
     FM251200 05012KT 1SM -SN OVC009=

USA.gov is the U.S. government's official web portal to all federal, state and local government web resources and services.